• Join FlightAware (Why Join?)
  • Login
  • US Flag 
08:43AM EDT


 

Airport Tracker/Info


-or-


 

Live Flight TrackerFlight Track Log ✈ SWA1925 ✈ 13-Apr-2013 ✈ KPHX - KSLC

Flight Track Log - Related Links

Times and Time Zones

All times are in EDT time to prevent confusion due to time zone crossing. See the SWA1925 flight status page for this flight to view local times or setup timezone preferences in your user account.

Time Position Orientation Groundspeed Altitude Reporting Facility
EDT Latitude Longitude Course Direction KTS MPH feet Rate Location/Type
10:12PM 33.4333 -112.0167 270° West 176 203 2,100  Level Phoenix TRACON
10:12PM 33.4333 -112.0667 270° West 180 207 3,500 2,460 Climbing Phoenix TRACON
10:13PM 33.4500 -112.1333 287° West 247 284 6,600 3,360 Climbing Phoenix TRACON
10:15PM 33.5147 -112.1547 345° North 297 342 11,100 3,660 Climbing Albuquerque Center
10:16PM 33.6128 -112.0764 34° Northeast 357 411 15,000 3,900 Climbing Albuquerque Center
10:17PM 33.7006 -112.0078 33° Northeast 375 432 19,100 3,720 Climbing Albuquerque Center
10:18PM 33.7961 -111.9325 33° Northeast 386 444 22,600 3,000 Climbing Albuquerque Center
10:19PM 33.8919 -111.8567 33° Northeast 411 473 25,200 2,520 Climbing Albuquerque Center
10:20PM 33.9894 -111.7781 34° Northeast 421 484 27,800 1,860 Climbing Albuquerque Center
10:21PM 34.0953 -111.7075 29° Northeast 434 499 29,000 540 Climbing Albuquerque Center
10:22PM 34.2136 -111.6656 16° North 429 494 29,000 780 Level Albuquerque Center
10:23PM 34.3261 -111.6472 North 417 480 30,700 2,160 Climbing Albuquerque Center
10:24PM 34.4311 -111.6769 347° North 393 452 33,500 1,620 Climbing Albuquerque Center
10:25PM 34.5353 -111.7058 347° North 385 443 34,000 240 Climbing Albuquerque Center
10:26PM 34.6375 -111.7372 346° North 382 440 34,000  Level Albuquerque Center
10:27PM 34.7394 -111.7686 346° North 379 436 34,000  Level Albuquerque Center
10:28PM 34.8456 -111.8017 346° North 375 432 34,000  Level Albuquerque Center
10:29PM 34.9464 -111.8317 346° North 375 432 34,000  Level Albuquerque Center
10:30PM 35.0483 -111.8625 346° North 378 435 34,000  Level Albuquerque Center
10:31PM 35.1500 -111.8942 346° North 379 436 34,000  Level Albuquerque Center
10:32PM 35.2500 -111.9264 345° North 376 433 34,000  Level Albuquerque Center
10:33PM 35.3500 -111.9561 346° North 373 429 34,000  Level Albuquerque Center
10:34PM 35.4697 -111.9925 346° North 372 428 34,000  Level Albuquerque Center
10:35PM 35.5728 -112.0056 354° North 380 437 34,000  Level Albuquerque Center
10:36PM 35.6786 -111.9925 North 385 443 34,000  Level Los Angeles Center
10:37PM 35.7831 -112.0056 354° North 382 440 34,000  Level Los Angeles Center
10:38PM 35.9075 -112.0247 353° North 378 435 34,000  Level Los Angeles Center
10:39PM 36.0114 -112.0408 353° North 379 436 34,000  Level Los Angeles Center
10:40PM 36.1142 -112.0556 353° North 376 433 34,000  Level Los Angeles Center
10:41PM 36.2219 -112.0725 353° North 374 430 34,000  Level Los Angeles Center
10:42PM 36.3239 -112.0878 353° North 371 427 34,000  Level Los Angeles Center
10:43PM 36.4250 -112.1033 353° North 367 422 34,000 -180 Level Los Angeles Center
10:44PM 36.5247 -112.1197 352° North 364 419 33,700 -660 Descending Los Angeles Center
10:45PM 36.6250 -112.1358 353° North 363 418 32,700 -840 Descending Los Angeles Center
10:46PM 36.7264 -112.1497 354° North 366 421 32,000 -360 Descending Los Angeles Center
10:47PM 36.8264 -112.1661 353° North 364 419 32,000  Level Los Angeles Center
10:48PM 36.9464 -112.1853 353° North 364 419 32,000  Level Los Angeles Center
10:49PM 37.0456 -112.2003 353° North 362 417 32,000  Level Los Angeles Center
10:50PM 37.1425 -112.2169 352° North 356 410 32,000  Level Los Angeles Center
10:51PM 37.2414 -112.2322 353° North 357 411 32,000  Level Los Angeles Center
10:52PM 37.3394 -112.2481 353° North 357 411 32,000  Level Los Angeles Center
10:53PM 37.3981 -112.2572 353° North 358 412 32,000  Level Salt Lake Center
10:54PM 37.4958 -112.2728 353° North 356 410 32,000  Level Salt Lake Center
10:55PM 37.5942 -112.2886 353° North 358 412 32,000  Level Salt Lake Center
10:56PM 37.6933 -112.3025 354° North 361 415 32,000  Level Salt Lake Center
10:57PM 37.7961 -112.2892 North 374 430 32,000  Level Salt Lake Center
10:58PM 37.9161 -112.2733 North 366 421 32,000  Level Salt Lake Center
10:59PM 38.0142 -112.2611 North 358 412 32,000  Level Salt Lake Center
11:00PM 38.1100 -112.2481 North 350 403 32,000  Level Salt Lake Center
11:01PM 38.2064 -112.2339 North 350 403 32,000  Level Salt Lake Center
11:02PM 38.3050 -112.2208 North 356 410 32,000  Level Salt Lake Center
11:03PM 38.4042 -112.2061 North 361 415 32,000  Level Salt Lake Center
11:04PM 38.5056 -112.1931 North 365 420 32,000  Level Salt Lake Center
11:05PM 38.6053 -112.1792 North 363 418 32,000  Level Salt Lake Center
11:06PM 38.7047 -112.1639 North 362 417 32,000  Level Salt Lake Center
11:07PM 38.8058 -112.1503 North 365 420 32,000  Level Salt Lake Center
11:08PM 38.9056 -112.1367 North 362 417 32,000  Level Salt Lake Center
11:09PM 39.0050 -112.1228 North 361 415 32,000 -60 Level Salt Lake Center
11:10PM 39.1250 -112.1061 North 362 417 31,900 -840 Descending Salt Lake Center
11:11PM 39.2217 -112.0922 North 353 406 30,400 -1,740 Descending Salt Lake Center
11:12PM 39.3147 -112.0786 North 345 397 28,400 -1,920 Descending Salt Lake Center
11:13PM 39.4058 -112.0664 North 334 384 26,500 -1,860 Descending Salt Lake Center
11:14PM 39.4928 -112.0542 North 321 369 24,700 -1,800 Descending Salt Lake Center
11:15PM 39.5792 -112.0425 North 315 362 22,900 -1,920 Descending Salt Lake Center
11:16PM 39.6714 -112.0292 North 326 375 20,900 -1,980 Descending Salt Lake Center
11:17PM 39.7683 -112.0136 North 343 395 18,900 -2,280 Descending Salt Lake Center
11:18PM 39.8525 -112.0114 North 348 400 16,800 -2,220 Descending Salt Lake Center
11:19PM 39.9386 -111.9994 North 343 395 15,200 -1,500 Descending Salt Lake Center
11:19PM 39.9575 -111.9883 24° Northeast 339 390 15,000 -1,440 Descending Salt Lake Center
11:20PM 40.0258 -111.9953 356° North 323 372 13,800 -1,320 Descending Salt Lake Center
11:20PM 40.0472 -111.9839 22° Northeast 324 373 13,700 -1,020 Descending Salt Lake Center
11:21PM 40.1169 -111.9872 358° North 317 365 12,800 -1,140 Descending Salt Lake Center
11:21PM 40.1344 -111.9783 21° North 315 362 12,600 -1,020 Descending Salt Lake Center
11:22PM 40.2039 -111.9803 359° North 308 354 11,800 -900 Descending Salt Lake Center
11:22PM 40.2183 -111.9719 24° Northeast 304 350 11,700 -1,020 Descending Salt Lake Center
11:23PM 40.2889 -111.9742 359° North 296 341 10,800 -1,320 Descending Salt Lake Center
11:23PM 40.3150 -111.9650 15° North 288 331 10,400 -840 Descending Salt Lake Center
11:24PM 40.3625 -111.9661 359° North 273 314 10,000 -420 Descending Salt Lake Center
11:24PM 40.3886 -111.9589 12° North 266 306 10,000  Level Salt Lake Center
11:25PM 40.4369 -111.9608 358° North 263 303 10,000 -240 Level Salt Lake Center
11:25PM 40.4600 -111.9564 North 257 296 9,800 -1,020 Descending Salt Lake Center
11:26PM 40.5031 -111.9692 347° North 238 274 9,000 -840 Descending Salt Lake Center
11:26PM 40.5244 -111.9664 North 235 270 9,000 -720 Level Salt Lake Center
11:27PM 40.5669 -111.9758 350° North 231 266 8,300 -1,140 Descending Salt Lake Center
11:27PM 40.5883 -111.9736 North 230 265 7,900 -1,200 Descending Salt Lake Center
11:28PM 40.6286 -111.9833 350° North 226 260 7,100 -1,140 Descending Salt Lake Center
11:28PM 40.6481 -111.9806 North 215 247 6,800 -1,020 Descending Salt Lake Center
11:29PM 40.6811 -111.9881 350° North 185 213 6,100 -1,020 Descending Salt Lake Center
11:29PM 40.6958 -111.9858 North 177 204 5,800 -840 Descending Salt Lake Center
11:30PM 40.7186 -111.9922 348° North 142 163 5,300 -720 Descending Salt Lake Center
11:31PM 40.7306 -111.9897 North 130 150 5,100 -600 Descending Salt Lake Center
11:31PM 40.7517 -111.9953 349° North 118 136 4,700 -600 Descending Salt Lake Center
11:32PM 40.7628 -111.9933 North 119 137 4,500 -600 Descending Salt Lake Center
11:34PM 40.7833 -111.9667 North  Level FlightAware Approximate